トロムソ の空港の天気 - METARとTAF

トロムソ空港 ( ENTC / TOS ) - ノルウェー トロムス県トロムソ
飛行場実況気象(Metar)
観測時間04/19 13:20 CEST (04/19 11:20 UTC)
風向・風速北北東 6m/s
視程10km以上
天気現象
少しの雲 雲底高度 340m
全天の8割程度の雲 雲底高度 430m
気温2℃
湿度87%
気圧1024hPa
METARENTC 191120Z 02012KT 9999 FEW011 BKN014 02/M00 Q1024 NOSIG RMK WIND 2600FT 16004KT
過去の天気等 Google飛行場航空写真 Wunderground天気予報

過去48時間のMETAR

飛行場予報(TAF)
発表時間: -
19日14時 CEST ~ 20日2時 CEST に一時的に
天気現象弱い雨霧雨
全天の8割程度の雲 雲底高度 370m
20日2時 CEST ~ 20日14時 CEST に一時的に
視程4,000m
天気現象雨霧雨
全天の8割程度の雲 雲底高度 240m
20日5時 CEST ~ 20日14時 CEST に 確率 40% で一時的に
視程1,000m
天気現象
全天を覆う雲 鉛直視程 90m
ENTC 1912/2012 02009KT 9999 FEW012 BKN015
TEMPO 1912/1924 -RADZ BKN012
TEMPO 2000/2012 4000 RADZ BKN008
PROB40 TEMPO 2003/2012 1000 FG VV003